Time;durP1;ratioP1;P1;durP2;ratioP2;P2;SDS_P1;SDS_P2;PMS_P1;PMS_P2;Temp;Humidity;BMP_temperature;BMP_pressure;BME280_temperature;BME280_humidity;BME280_pressure;Samples;Min_cycle;Max_cycle;Signal;HPM_P1;HPM_P2
2022/03/15 00:00:28;;;;;;;15.88;10.65;;;;;;;6.69;86.50;101954.63;5004141;28;20038;-74
2022/03/15 00:02:54;;;;;;;19.35;11.70;;;;;;;6.55;86.36;101956.81;5008727;28;20028;-75
2022/03/15 00:05:20;;;;;;;16.67;10.15;;;;;;;6.43;86.60;101948.53;5007216;28;20536;-74
2022/03/15 00:07:46;;;;;;;19.55;11.48;;;;;;;6.38;86.85;101942.25;5018654;28;20041;-74
2022/03/15 00:10:15;;;;;;;16.40;10.65;;;;;;;6.32;86.22;101956.03;5011208;28;20079;-73
2022/03/15 00:12:45;;;;;;;14.88;9.60;;;;;;;6.18;86.87;101952.03;5024674;28;20030;-74
2022/03/15 00:15:11;;;;;;;16.63;10.60;;;;;;;6.05;87.06;101954.25;5048341;27;20034;-74
2022/03/15 00:17:38;;;;;;;23.67;13.05;;;;;;;5.97;87.09;101950.44;5004104;28;20038;-74
2022/03/15 00:20:06;;;;;;;16.73;10.07;;;;;;;5.90;87.06;101958.91;5022443;28;20038;-73
2022/03/15 00:22:35;;;;;;;16.50;9.77;;;;;;;5.82;87.41;101957.75;5009509;28;20656;-73
2022/03/15 00:25:09;;;;;;;17.33;10.80;;;;;;;5.76;87.38;101957.50;5002756;28;20109;-74
2022/03/15 00:27:35;;;;;;;19.13;11.90;;;;;;;5.66;87.50;101954.56;5034965;28;20038;-74
2022/03/15 00:30:03;;;;;;;18.38;12.20;;;;;;;5.57;87.74;101962.09;5014285;28;20038;-74
2022/03/15 00:32:29;;;;;;;15.65;10.00;;;;;;;5.47;88.27;101959.94;5021643;28;20446;-75
2022/03/15 00:34:54;;;;;;;18.08;11.00;;;;;;;5.48;88.71;101965.25;5013573;28;20092;-73
2022/03/15 00:37:21;;;;;;;21.98;11.77;;;;;;;5.46;89.08;101966.91;5002733;28;20030;-74
2022/03/15 00:39:46;;;;;;;20.40;12.85;;;;;;;5.43;89.12;101964.19;5053333;28;20037;-74
2022/03/15 00:42:12;;;;;;;19.98;11.13;;;;;;;5.35;88.91;101967.38;5022358;28;20526;-74
2022/03/15 00:44:38;;;;;;;17.67;11.95;;;;;;;5.23;89.60;101959.91;5010139;28;20037;-74
2022/03/15 00:47:05;;;;;;;17.88;12.55;;;;;;;5.19;89.85;101969.38;5030954;28;20038;-74
2022/03/15 00:49:30;;;;;;;14.60;9.98;;;;;;;5.15;89.26;101961.34;5002034;28;20049;-74
2022/03/15 00:51:56;;;;;;;18.98;12.13;;;;;;;5.12;90.10;101966.47;5023117;27;20026;-74
2022/03/15 00:54:21;;;;;;;16.33;9.88;;;;;;;5.06;89.66;101969.75;5002349;28;20054;-73
2022/03/15 00:56:50;;;;;;;14.85;9.30;;;;;;;5.04;89.65;101966.16;5007885;28;20031;-74
2022/03/15 00:59:15;;;;;;;15.23;9.55;;;;;;;4.98;89.90;101961.59;5038613;28;20146;-73
2022/03/15 01:01:42;;;;;;;18.17;9.57;;;;;;;5.00;90.27;101956.41;5008165;28;20133;-73
2022/03/15 01:04:08;;;;;;;18.70;9.75;;;;;;;5.00;90.21;101951.16;5023783;28;20542;-74
2022/03/15 01:06:34;;;;;;;18.98;10.93;;;;;;;5.00;90.28;101954.69;4998283;28;20045;-74
2022/03/15 01:09:02;;;;;;;15.75;9.65;;;;;;;4.98;90.64;101951.13;5024567;27;20056;-74
2022/03/15 01:11:28;;;;;;;15.50;9.45;;;;;;;4.97;90.55;101953.66;5023733;28;20033;-74
2022/03/15 01:13:53;;;;;;;16.48;9.18;;;;;;;4.92;90.78;101952.59;5042588;28;20035;-74
2022/03/15 01:16:19;;;;;;;16.65;9.85;;;;;;;4.89;90.44;101952.47;5010558;28;20026;-73
2022/03/15 01:18:44;;;;;;;18.42;10.52;;;;;;;4.82;89.97;101949.63;5044299;27;20436;-73
2022/03/15 01:21:11;;;;;;;16.98;10.35;;;;;;;4.75;89.89;101955.44;5011694;28;20080;-74
2022/03/15 01:23:36;;;;;;;16.48;9.23;;;;;;;4.63;89.44;101957.53;5006439;28;20488;-74
2022/03/15 01:26:03;;;;;;;15.55;10.18;;;;;;;4.52;89.21;101951.00;5048751;28;20102;-74
2022/03/15 01:28:29;;;;;;;15.98;10.32;;;;;;;4.44;89.04;101963.75;4999832;28;20030;-74
2022/03/15 01:30:55;;;;;;;19.00;10.65;;;;;;;4.35;89.44;101961.66;5012953;28;20493;-74
2022/03/15 01:33:23;;;;;;;16.02;9.77;;;;;;;4.27;89.16;101963.06;5043136;27;20034;-74
2022/03/15 01:35:48;;;;;;;16.92;10.35;;;;;;;4.16;89.25;101969.50;5001090;28;20038;-74
2022/03/15 01:38:13;;;;;;;11.85;8.55;;;;;;;4.04;88.66;101974.22;5017051;28;20034;-73
2022/03/15 01:40:39;;;;;;;12.65;8.52;;;;;;;3.93;88.40;101981.59;5031981;28;20026;-74
2022/03/15 01:43:06;;;;;;;13.35;8.73;;;;;;;3.82;88.72;101978.50;5004753;28;20040;-74
2022/03/15 01:45:34;;;;;;;17.58;9.98;;;;;;;3.75;88.83;101984.28;5018022;28;20038;-74
2022/03/15 01:47:59;;;;;;;15.90;7.15;;;;;;;3.65;88.97;101987.31;5028703;28;20037;-74
2022/03/15 01:50:25;;;;;;;18.35;10.98;;;;;;;3.50;90.37;101985.75;5026410;28;20083;-74
2022/03/15 01:52:51;;;;;;;14.55;8.68;;;;;;;3.50;90.21;101987.50;5032276;28;20512;-74
2022/03/15 01:55:16;;;;;;;16.27;8.48;;;;;;;3.48;90.33;101994.34;5010528;28;20124;-73
2022/03/15 01:57:41;;;;;;;15.98;9.55;;;;;;;3.49;91.03;101989.22;5044890;28;20112;-73
2022/03/15 02:00:08;;;;;;;18.00;10.68;;;;;;;3.54;90.99;101985.91;5012076;28;20040;-73
2022/03/15 02:02:34;;;;;;;16.98;9.20;;;;;;;3.54;90.95;101986.81;5003369;28;20080;-73
2022/03/15 02:04:59;;;;;;;16.77;9.70;;;;;;;3.53;90.81;101984.13;5070151;28;20031;-73
2022/03/15 02:07:25;;;;;;;17.52;10.73;;;;;;;3.53;91.49;101984.13;5004640;28;20030;-74
2022/03/15 02:09:51;;;;;;;17.45;9.98;;;;;;;3.55;91.26;101985.09;5020232;28;20545;-74
2022/03/15 02:12:17;;;;;;;16.13;10.05;;;;;;;3.56;91.06;101990.38;5022715;28;20541;-74
2022/03/15 02:14:42;;;;;;;18.33;10.52;;;;;;;3.62;91.61;101992.41;5012193;28;20042;-74
2022/03/15 02:17:07;;;;;;;18.83;11.40;;;;;;;3.68;93.33;101990.94;5020646;28;20370;-74
2022/03/15 02:19:35;;;;;;;18.52;11.38;;;;;;;3.73;92.50;102005.09;5000478;28;20053;-74
2022/03/15 02:22:01;;;;;;;16.83;10.15;;;;;;;3.75;92.35;101997.34;4994679;28;20034;-74
2022/03/15 02:24:26;;;;;;;18.30;10.23;;;;;;;3.78;92.29;102007.03;5018806;28;20037;-74
2022/03/15 02:26:51;;;;;;;17.38;10.30;;;;;;;3.77;92.34;101993.06;5028252;28;20045;-74
2022/03/15 02:29:18;;;;;;;19.90;10.30;;;;;;;3.79;92.43;101991.41;5000109;28;20476;-73
2022/03/15 02:31:43;;;;;;;19.00;10.35;;;;;;;3.75;91.58;101999.97;5038036;28;20053;-74
2022/03/15 02:34:09;;;;;;;16.60;10.93;;;;;;;3.70;91.72;102004.06;5001769;28;20081;-73
2022/03/15 02:36:35;;;;;;;16.67;10.13;;;;;;;3.67;92.36;102003.94;5013888;28;20052;-74
2022/03/15 02:39:00;;;;;;;14.80;8.80;;;;;;;3.65;91.97;101988.19;5042399;28;20030;-73
2022/03/15 02:41:26;;;;;;;16.95;9.15;;;;;;;3.67;91.97;101997.00;5012864;28;20042;-74
2022/03/15 02:43:51;;;;;;;15.25;9.75;;;;;;;3.64;91.28;101998.56;5055166;27;20054;-74
2022/03/15 02:46:17;;;;;;;15.35;8.55;;;;;;;3.61;91.98;102003.63;5020170;28;20033;-74
2022/03/15 02:48:43;;;;;;;16.67;9.45;;;;;;;3.62;91.84;102001.13;5014656;28;20042;-74
2022/03/15 02:51:10;;;;;;;13.15;8.20;;;;;;;3.64;91.55;102003.78;5033958;28;20042;-73
2022/03/15 02:53:39;;;;;;;12.35;7.60;;;;;;;3.60;91.35;102012.31;5005902;28;20072;-74
2022/03/15 02:56:11;;;;;;;14.95;8.98;;;;;;;3.60;91.83;102001.88;5027748;28;20039;-74
2022/03/15 02:58:40;;;;;;;19.10;10.32;;;;;;;3.61;91.58;101998.41;5024952;28;20030;-74
2022/03/15 03:01:06;;;;;;;16.00;9.40;;;;;;;3.61;91.89;101998.41;5018314;28;20384;-74
2022/03/15 03:03:32;;;;;;;14.70;8.75;;;;;;;3.62;92.14;101992.41;5003666;28;20041;-74
2022/03/15 03:05:57;;;;;;;11.60;8.27;;;;;;;3.62;91.83;101993.28;5016494;28;20038;-74
2022/03/15 03:08:25;;;;;;;13.80;8.95;;;;;;;3.59;91.57;101995.75;5005858;28;20106;-74
2022/03/15 03:10:52;;;;;;;14.18;9.02;;;;;;;3.58;90.92;102000.91;5045035;28;20507;-73
2022/03/15 03:13:18;;;;;;;16.95;9.55;;;;;;;3.59;91.35;102000.06;5013931;28;20053;-73
2022/03/15 03:15:43;;;;;;;14.77;8.55;;;;;;;3.57;91.16;101997.41;5020948;28;20022;-74
2022/03/15 03:18:09;;;;;;;15.02;8.32;;;;;;;3.60;91.00;102007.09;5042490;28;20026;-74
2022/03/15 03:20:35;;;;;;;13.88;8.98;;;;;;;3.56;90.74;101999.94;5008611;28;20797;-74
2022/03/15 03:23:01;;;;;;;16.17;9.27;;;;;;;3.51;90.20;102003.25;5019109;28;20111;-73
2022/03/15 03:25:28;;;;;;;19.05;9.85;;;;;;;3.44;90.24;102010.72;5040385;27;20056;-74
2022/03/15 03:27:57;;;;;;;18.42;10.73;;;;;;;3.36;90.13;102007.75;5015354;28;20026;-74
2022/03/15 03:30:23;;;;;;;16.60;9.40;;;;;;;3.32;90.84;102002.28;5039163;28;20047;-73
2022/03/15 03:32:49;;;;;;;20.80;11.10;;;;;;;3.23;90.27;102001.06;5013202;28;20034;-73
2022/03/15 03:35:14;;;;;;;19.23;10.25;;;;;;;3.20;90.62;102010.47;5029132;28;20386;-74
2022/03/15 03:37:40;;;;;;;17.55;10.60;;;;;;;3.21;90.26;102007.91;5037104;28;20087;-73
2022/03/15 03:40:07;;;;;;;18.90;10.98;;;;;;;3.23;90.49;102013.22;5007308;28;20037;-74
2022/03/15 03:42:34;;;;;;;15.27;10.07;;;;;;;3.22;90.25;102025.38;5021721;28;20533;-74
2022/03/15 03:44:59;;;;;;;15.48;9.93;;;;;;;3.20;90.12;102020.91;5042476;28;20035;-74
2022/03/15 03:47:24;;;;;;;16.90;10.57;;;;;;;3.13;89.51;102024.03;5003861;28;20487;-75
2022/03/15 03:49:50;;;;;;;17.48;10.38;;;;;;;3.08;89.62;102027.28;5021287;28;20400;-73
2022/03/15 03:52:15;;;;;;;14.48;8.70;;;;;;;3.04;89.46;102030.59;5002194;28;20044;-74
2022/03/15 03:54:40;;;;;;;18.60;10.60;;;;;;;3.06;90.17;102018.50;5017269;28;20029;-75
2022/03/15 03:57:06;;;;;;;16.17;10.40;;;;;;;3.06;89.73;102018.50;5048135;28;20481;-74
2022/03/15 03:59:31;;;;;;;13.82;8.82;;;;;;;3.05;89.67;102019.31;5007567;28;20609;-74
2022/03/15 04:01:57;;;;;;;16.05;8.88;;;;;;;3.02;89.50;102024.41;5025654;28;20100;-74
2022/03/15 04:04:22;;;;;;;12.82;7.65;;;;;;;2.94;89.15;102023.13;5032264;28;20034;-74
2022/03/15 04:06:48;;;;;;;17.50;10.45;;;;;;;2.93;89.11;102030.88;5018510;28;20482;-74
2022/03/15 04:09:13;;;;;;;14.73;8.27;;;;;;;2.90;89.72;102030.72;5042003;28;20037;-74
2022/03/15 04:11:40;;;;;;;163.13;16.95;;;;;;;2.90;89.26;102031.63;5036044;28;20025;-74
2022/03/15 04:14:05;;;;;;;14.77;8.98;;;;;;;2.88;89.92;102034.97;5007138;28;20041;-74
2022/03/15 04:16:31;;;;;;;10.48;6.85;;;;;;;2.84;89.70;102027.00;5037161;28;20046;-74
2022/03/15 04:18:57;;;;;;;11.43;7.47;;;;;;;2.82;89.74;102030.34;5016609;28;20035;-74
2022/03/15 04:21:24;;;;;;;12.27;7.78;;;;;;;2.78;89.49;102025.81;5024713;28;20030;-74
2022/03/15 04:23:54;;;;;;;10.82;7.25;;;;;;;2.76;89.74;102030.94;5045881;28;20038;-75
2022/03/15 04:26:19;;;;;;;10.93;7.50;;;;;;;2.76;90.03;102032.66;5016103;28;20029;-74
2022/03/15 04:28:45;;;;;;;10.73;7.38;;;;;;;2.77;89.37;102021.41;5001322;28;20071;-74
2022/03/15 04:31:10;;;;;;;13.80;8.50;;;;;;;2.77;89.59;102024.00;4998541;28;20415;-74
2022/03/15 04:33:36;;;;;;;14.07;8.88;;;;;;;2.75;89.52;102025.63;5002593;28;20412;-74
2022/03/15 04:36:01;;;;;;;13.52;8.85;;;;;;;2.74;89.62;102013.44;5054355;28;20028;-74
2022/03/15 04:38:27;;;;;;;14.30;8.80;;;;;;;2.75;88.98;102015.22;5023230;28;20040;-73
2022/03/15 04:40:52;;;;;;;14.95;9.45;;;;;;;2.72;89.16;102015.06;5023886;28;20067;-74
2022/03/15 04:43:18;;;;;;;14.27;8.75;;;;;;;2.71;89.51;102008.06;5038289;28;20125;-74
2022/03/15 04:45:53;;;;;;;13.82;8.68;;;;;;;2.71;88.87;102013.28;5025789;28;20065;-74
2022/03/15 04:48:21;;;;;;;14.15;9.45;;;;;;;2.64;88.78;102004.25;5004329;28;20100;-74
2022/03/15 04:50:47;;;;;;;12.35;8.65;;;;;;;2.59;88.29;102009.25;5023789;28;20121;-75
2022/03/15 04:53:12;;;;;;;16.70;9.60;;;;;;;2.55;88.13;102007.31;5002721;28;20033;-75
2022/03/15 04:55:38;;;;;;;12.85;8.65;;;;;;;2.50;88.22;102003.56;5005605;28;20078;-77
2022/03/15 04:58:03;;;;;;;14.05;8.75;;;;;;;2.42;87.88;102004.91;5006834;28;20030;-75
2022/03/15 05:00:29;;;;;;;11.07;7.55;;;;;;;2.40;87.82;102006.53;5007850;28;20506;-75
2022/03/15 05:02:57;;;;;;;11.75;7.95;;;;;;;2.39;87.96;102002.16;5028617;28;20028;-75
2022/03/15 05:05:22;;;;;;;12.73;8.43;;;;;;;2.37;88.42;102002.06;5008453;28;20030;-75
2022/03/15 05:07:48;;;;;;;16.05;9.90;;;;;;;2.36;88.10;102004.59;5006664;28;20092;-74
2022/03/15 05:12:57;;;;;;;13.48;8.52;;;;;;;2.29;87.84;101998.19;5025795;28;20031;-74
2022/03/15 05:15:23;;;;;;;11.98;7.80;;;;;;;2.24;88.20;101999.66;5037616;28;20056;-75
2022/03/15 05:17:48;;;;;;;13.90;9.43;;;;;;;2.20;88.33;101997.69;5008002;28;20079;-74
2022/03/15 05:20:14;;;;;;;10.38;7.30;;;;;;;2.17;88.17;101998.47;5003323;28;20044;-74
2022/03/15 05:22:40;;;;;;;10.32;7.20;;;;;;;2.16;88.33;101995.75;4999387;28;20038;-74
2022/03/15 05:25:06;;;;;;;13.18;8.13;;;;;;;2.16;87.87;101991.44;5001837;28;20120;-75
2022/03/15 05:27:34;;;;;;;13.43;8.05;;;;;;;2.16;88.12;101998.38;5003323;28;20538;-73
2022/03/15 05:30:00;;;;;;;11.05;6.93;;;;;;;2.14;88.16;101987.84;5018775;28;20408;-75
2022/03/15 05:32:25;;;;;;;12.55;8.13;;;;;;;2.17;88.14;101993.25;4998222;28;20034;-74
2022/03/15 05:34:51;;;;;;;10.15;6.05;;;;;;;2.13;88.01;101986.09;5000616;28;20129;-74
2022/03/15 05:37:16;;;;;;;10.50;6.03;;;;;;;2.19;88.01;101995.91;4997632;28;20038;-74
2022/03/15 05:39:42;;;;;;;14.48;7.70;;;;;;;2.24;87.93;101985.75;5002100;28;20462;-74
2022/03/15 05:42:09;;;;;;;13.95;7.95;;;;;;;2.30;88.27;101984.31;5008288;28;20040;-74
2022/03/15 05:44:34;;;;;;;11.93;7.65;;;;;;;2.34;88.46;101982.78;5008582;28;20061;-75
2022/03/15 05:47:00;;;;;;;13.02;7.55;;;;;;;2.34;88.33;101974.97;5005270;28;20455;-77
2022/03/15 05:49:25;;;;;;;13.75;8.82;;;;;;;2.37;88.34;101977.72;5009341;28;20041;-76
2022/03/15 05:51:50;;;;;;;12.40;7.57;;;;;;;2.34;88.29;101980.19;4998531;28;20095;-76
2022/03/15 05:54:16;;;;;;;15.18;8.02;;;;;;;2.37;88.60;101978.63;5039206;28;20026;-75
2022/03/15 05:56:41;;;;;;;11.25;7.38;;;;;;;2.43;87.92;101983.22;5002969;28;20088;-76
2022/03/15 05:59:07;;;;;;;12.10;8.13;;;;;;;2.49;88.47;101991.38;5023348;28;20025;-76
2022/03/15 06:01:33;;;;;;;9.43;6.68;;;;;;;2.52;87.95;101988.91;5004194;28;20069;-76
2022/03/15 06:03:59;;;;;;;12.48;7.80;;;;;;;2.55;87.45;101996.88;5017550;28;20102;-76
2022/03/15 06:06:24;;;;;;;16.00;10.30;;;;;;;2.53;87.29;101997.63;5008722;28;20095;-76
2022/03/15 06:08:51;;;;;;;17.70;11.15;;;;;;;2.57;87.46;101999.59;5035864;28;20035;-76
2022/03/15 06:11:17;;;;;;;12.38;7.78;;;;;;;2.62;87.27;101998.09;5004213;28;20109;-76
2022/03/15 06:13:43;;;;;;;12.77;8.23;;;;;;;2.57;87.23;101992.66;5034316;28;20395;-76
2022/03/15 06:16:08;;;;;;;13.15;8.40;;;;;;;2.63;88.23;101998.16;5017142;28;20030;-76
2022/03/15 06:18:34;;;;;;;15.52;8.60;;;;;;;2.75;87.97;101987.44;5015622;28;20095;-76
2022/03/15 06:21:00;;;;;;;16.38;10.02;;;;;;;2.87;87.86;101994.06;5002661;28;20400;-77
2022/03/15 06:23:26;;;;;;;13.50;8.35;;;;;;;2.98;87.65;101983.31;5001722;28;20070;-75
2022/03/15 06:25:51;;;;;;;15.38;10.07;;;;;;;3.06;87.61;101981.97;5001067;28;20377;-76
2022/03/15 06:28:17;;;;;;;13.07;8.88;;;;;;;3.15;87.53;101991.97;5003270;28;20135;-76
2022/03/15 06:30:42;;;;;;;13.93;8.80;;;;;;;3.21;87.35;101989.63;5000484;28;20034;-76
2022/03/15 06:33:08;;;;;;;12.35;8.35;;;;;;;3.31;87.14;101990.09;5004662;28;20057;-76
2022/03/15 06:35:34;;;;;;;13.50;9.57;;;;;;;3.36;87.14;101991.19;5006442;28;20034;-76
2022/03/15 06:38:01;;;;;;;13.20;8.27;;;;;;;3.46;86.79;101990.81;5009046;28;20029;-76
2022/03/15 06:40:29;;;;;;;16.42;8.80;;;;;;;3.45;86.87;101992.50;5006886;28;20037;-76
2022/03/15 06:42:55;;;;;;;12.10;8.43;;;;;;;3.55;87.59;101988.59;5005784;28;20051;-75
2022/03/15 06:45:22;;;;;;;11.85;8.27;;;;;;;3.67;86.94;101988.28;5001613;28;20030;-76
2022/03/15 06:47:48;;;;;;;13.43;8.82;;;;;;;3.79;86.88;101994.03;5015939;28;20031;-76
2022/03/15 06:50:13;;;;;;;13.25;7.72;;;;;;;3.93;86.77;101997.28;5004111;28;20033;-76
2022/03/15 06:52:44;;;;;;;14.57;8.57;;;;;;;4.06;86.52;101993.47;5001786;28;20492;-76
2022/03/15 06:55:11;;;;;;;12.93;9.35;;;;;;;4.16;86.86;101980.84;5003443;28;20050;-76
2022/03/15 06:57:37;;;;;;;12.30;8.70;;;;;;;4.23;86.12;101987.25;5003486;28;20476;-76
2022/03/15 07:00:09;;;;;;;12.80;8.57;;;;;;;4.25;86.70;101985.59;5012679;28;20040;-76
2022/03/15 07:02:35;;;;;;;14.63;9.10;;;;;;;4.28;86.83;101980.50;5000103;28;20476;-76
2022/03/15 07:05:00;;;;;;;13.68;9.18;;;;;;;4.38;86.51;101972.22;5002545;28;20045;-76
2022/03/15 07:07:25;;;;;;;12.07;8.00;;;;;;;4.57;86.21;101973.00;5000037;28;20049;-76
2022/03/15 07:09:53;;;;;;;11.93;8.18;;;;;;;4.74;86.20;101976.28;5001734;28;20041;-76
2022/03/15 07:12:19;;;;;;;14.38;9.43;;;;;;;4.90;85.54;101972.56;5013658;28;20039;-76
2022/03/15 07:14:45;;;;;;;14.25;10.02;;;;;;;5.05;85.22;101973.19;4998756;28;20049;-76
2022/03/15 07:17:10;;;;;;;15.50;9.15;;;;;;;5.22;85.03;101979.09;4998575;28;20038;-76
2022/03/15 07:19:36;;;;;;;17.70;11.13;;;;;;;5.34;84.44;101970.78;5005966;28;20415;-76
2022/03/15 07:22:02;;;;;;;14.20;9.35;;;;;;;5.44;84.55;101972.94;5017884;28;20064;-76
2022/03/15 07:24:27;;;;;;;17.02;10.48;;;;;;;5.55;84.60;101974.22;4999691;28;20050;-76
2022/03/15 07:26:52;;;;;;;12.88;9.35;;;;;;;5.63;84.52;101978.03;5002410;28;20065;-76
2022/03/15 07:29:18;;;;;;;14.38;9.77;;;;;;;5.76;84.01;101975.84;5000186;28;20039;-75
2022/03/15 07:31:44;;;;;;;16.20;9.77;;;;;;;5.91;83.72;101971.19;5003960;28;20038;-76
2022/03/15 07:34:09;;;;;;;12.95;9.73;;;;;;;6.05;83.57;101967.38;5013919;28;20022;-76
2022/03/15 07:36:35;;;;;;;12.27;8.15;;;;;;;6.25;83.15;101969.78;4998583;28;20039;-76
2022/03/15 07:39:00;;;;;;;12.50;7.95;;;;;;;6.40;82.17;101972.94;4998456;28;20050;-76
2022/03/15 07:41:26;;;;;;;11.27;7.82;;;;;;;6.57;82.01;101963.00;5003553;28;20144;-76
2022/03/15 07:43:51;;;;;;;13.70;8.10;;;;;;;6.67;81.39;101966.81;5019132;28;20125;-76
2022/03/15 07:46:17;;;;;;;11.95;7.22;;;;;;;6.78;80.96;101968.94;4999442;28;20062;-76
2022/03/15 07:48:42;;;;;;;11.43;7.20;;;;;;;6.88;80.39;101964.88;5000199;28;20550;-76
2022/03/15 07:51:07;;;;;;;11.48;6.70;;;;;;;7.00;80.62;101967.91;5004948;28;20029;-76
2022/03/15 07:53:33;;;;;;;12.65;6.78;;;;;;;7.06;79.71;101971.56;5007160;28;20484;-76
2022/03/15 07:56:01;;;;;;;9.68;6.63;;;;;;;7.15;79.86;101967.50;5005367;28;20496;-75
2022/03/15 07:58:27;;;;;;;9.25;6.28;;;;;;;7.31;79.33;101960.97;5007218;28;20090;-75
2022/03/15 08:00:54;;;;;;;11.77;7.45;;;;;;;7.40;77.95;101961.22;5001857;28;20035;-76
2022/03/15 08:03:19;;;;;;;11.63;6.50;;;;;;;7.54;77.74;101961.63;5002330;28;20105;-76
2022/03/15 08:05:45;;;;;;;12.15;6.57;;;;;;;7.72;77.17;101961.25;5005704;28;20120;-76
2022/03/15 08:08:10;;;;;;;10.48;6.55;;;;;;;7.85;76.81;101954.63;5009192;28;20446;-76
2022/03/15 08:10:35;;;;;;;9.70;6.60;;;;;;;8.00;76.59;101956.78;5010018;28;20505;-76
2022/03/15 08:13:02;;;;;;;9.63;6.57;;;;;;;8.12;76.98;101955.38;5007090;28;20504;-76
2022/03/15 08:15:28;;;;;;;11.43;6.47;;;;;;;8.26;76.29;101945.22;5007678;28;20475;-76
2022/03/15 08:17:55;;;;;;;8.70;5.53;;;;;;;8.43;75.93;101944.78;5008058;28;20040;-76
2022/03/15 08:20:20;;;;;;;8.90;6.20;;;;;;;8.53;75.80;101944.16;5011090;28;20041;-76
2022/03/15 08:22:46;;;;;;;8.85;6.40;;;;;;;8.67;75.87;101942.78;5002069;28;20117;-76
2022/03/15 08:25:12;;;;;;;9.50;6.32;;;;;;;8.80;75.86;101941.31;4999719;28;20041;-76
2022/03/15 08:27:37;;;;;;;11.02;6.70;;;;;;;8.96;75.05;101929.38;5005954;28;20108;-76
2022/03/15 08:30:04;;;;;;;9.48;6.55;;;;;;;9.13;74.38;101928.03;5008482;28;20061;-76
2022/03/15 08:32:29;;;;;;;8.20;5.57;;;;;;;9.25;73.83;101926.50;4998805;28;20096;-76
2022/03/15 08:34:55;;;;;;;10.35;6.10;;;;;;;9.22;73.29;101927.31;4998744;28;20053;-76
2022/03/15 08:37:21;;;;;;;9.43;5.88;;;;;;;9.32;73.74;101923.16;4995991;28;20389;-76
2022/03/15 08:39:46;;;;;;;10.85;6.20;;;;;;;9.54;72.57;101920.13;5001132;28;20476;-75
2022/03/15 08:42:11;;;;;;;9.23;5.57;;;;;;;9.68;72.98;101916.88;5003522;28;20034;-76
2022/03/15 08:44:37;;;;;;;11.48;6.25;;;;;;;9.86;72.90;101917.22;5012661;28;20075;-76
2022/03/15 08:47:02;;;;;;;9.70;6.47;;;;;;;9.94;71.26;101915.63;4999684;28;20582;-76
2022/03/15 08:49:28;;;;;;;9.48;5.90;;;;;;;9.96;72.18;101913.91;4998710;28;20396;-76
2022/03/15 08:51:53;;;;;;;8.35;5.53;;;;;;;10.13;71.52;101910.66;5000822;28;20041;-76
2022/03/15 08:54:20;;;;;;;12.10;7.60;;;;;;;10.18;71.35;101907.25;4998674;28;20117;-76
2022/03/15 08:56:45;;;;;;;11.18;7.15;;;;;;;10.13;71.83;101908.91;5002005;28;20045;-76
2022/03/15 08:59:12;;;;;;;9.18;5.90;;;;;;;10.26;69.45;101908.25;5007610;28;20042;-76
2022/03/15 09:01:39;;;;;;;11.48;6.53;;;;;;;10.33;70.45;101903.16;4997670;28;20038;-76
2022/03/15 09:04:04;;;;;;;12.75;7.75;;;;;;;10.46;70.24;101905.13;5000617;28;20118;-77
2022/03/15 09:06:31;;;;;;;10.07;6.25;;;;;;;10.65;69.61;101899.25;4999002;28;20456;-76
2022/03/15 09:08:57;;;;;;;10.00;7.03;;;;;;;10.75;69.16;101903.81;4998551;28;20117;-76
2022/03/15 09:11:23;;;;;;;11.15;6.28;;;;;;;10.83;67.97;101895.13;4997057;28;20038;-76
2022/03/15 09:13:48;;;;;;;8.75;6.13;;;;;;;10.91;68.75;101904.94;5000691;28;20033;-76
2022/03/15 09:16:14;;;;;;;9.02;5.53;;;;;;;11.08;67.97;101898.97;5013939;28;20049;-76
2022/03/15 09:18:39;;;;;;;13.32;8.18;;;;;;;11.24;67.83;101897.44;4998958;28;20042;-76
2022/03/15 09:21:06;;;;;;;39.78;19.50;;;;;;;11.34;67.34;101894.03;5015031;28;20099;-76
2022/03/15 09:23:32;;;;;;;18.00;10.85;;;;;;;11.35;66.36;101895.84;4997443;28;20125;-76
2022/03/15 09:25:57;;;;;;;14.45;8.93;;;;;;;11.34;66.56;101892.31;4998386;28;20130;-76
2022/03/15 09:28:22;;;;;;;14.02;8.02;;;;;;;11.38;66.84;101891.47;5001952;28;20049;-76
2022/03/15 09:30:48;;;;;;;13.27;9.25;;;;;;;11.48;67.02;101888.94;4997958;28;20087;-76
2022/03/15 09:33:15;;;;;;;9.93;6.53;;;;;;;11.52;66.47;101882.81;5000407;28;20033;-76
2022/03/15 09:35:41;;;;;;;9.75;6.30;;;;;;;11.69;66.73;101881.25;4997939;28;20113;-76
2022/03/15 09:38:07;;;;;;;11.73;7.20;;;;;;;11.67;64.55;101882.97;4998838;28;20067;-76
2022/03/15 09:40:33;;;;;;;12.50;7.32;;;;;;;11.75;65.83;101881.28;4999686;28;20033;-75
2022/03/15 09:43:03;;;;;;;11.30;6.65;;;;;;;12.01;64.84;101889.53;5018186;28;20023;-76
2022/03/15 09:45:32;;;;;;;14.80;7.97;;;;;;;12.20;64.97;101877.34;5033792;28;20029;-76
2022/03/15 09:48:02;;;;;;;10.70;6.80;;;;;;;12.12;64.31;101880.81;5004295;28;20036;-76
2022/03/15 09:50:28;;;;;;;10.55;6.65;;;;;;;12.11;64.82;101876.41;5006487;28;20040;-76
2022/03/15 09:52:56;;;;;;;10.27;6.28;;;;;;;12.31;64.55;101869.50;5009762;28;20026;-76
2022/03/15 09:55:22;;;;;;;8.30;5.00;;;;;;;12.39;63.52;101877.50;5005293;28;20037;-76
2022/03/15 09:57:47;;;;;;;10.88;6.30;;;;;;;12.26;64.08;101872.13;5026982;28;20030;-76
2022/03/15 10:00:15;;;;;;;11.43;6.57;;;;;;;12.37;63.95;101866.03;5004132;28;20049;-76
2022/03/15 10:02:42;;;;;;;13.10;8.40;;;;;;;12.58;63.96;101860.00;4999928;28;20436;-76
2022/03/15 10:05:08;;;;;;;12.43;6.80;;;;;;;12.28;63.00;101859.75;5011391;28;20034;-76
2022/03/15 10:07:35;;;;;;;8.18;6.15;;;;;;;12.33;62.79;101857.16;4996857;28;20046;-75
2022/03/15 10:10:01;;;;;;;9.15;5.50;;;;;;;12.52;63.61;101849.34;5008969;28;20112;-76
2022/03/15 10:12:26;;;;;;;7.78;5.10;;;;;;;12.70;62.72;101845.06;5020543;28;20108;-76
2022/03/15 10:14:52;;;;;;;7.93;5.25;;;;;;;12.85;62.35;101840.75;5016981;28;20922;-76
2022/03/15 10:17:17;;;;;;;9.43;6.15;;;;;;;12.92;63.22;101838.13;4997116;28;20046;-76
2022/03/15 10:19:51;;;;;;;9.48;6.82;;;;;;;13.16;61.68;101828.50;5023082;28;20030;-76
2022/03/15 10:22:28;;;;;;;11.55;8.07;;;;;;;13.24;60.21;101828.53;4998060;28;20049;-76
2022/03/15 10:24:54;;;;;;;9.93;5.72;;;;;;;13.34;60.32;101825.97;5011334;28;20047;-76
2022/03/15 10:27:19;;;;;;;9.48;5.50;;;;;;;13.49;59.85;101816.25;5008518;28;20041;-76
2022/03/15 10:29:47;;;;;;;9.65;5.40;;;;;;;13.51;60.08;101811.84;5032319;28;20052;-76
2022/03/15 10:32:13;;;;;;;8.68;5.82;;;;;;;13.56;60.28;101816.28;5026987;28;20026;-76
2022/03/15 10:34:39;;;;;;;8.20;6.72;;;;;;;13.65;59.03;101806.56;4996894;28;20499;-76
2022/03/15 10:37:04;;;;;;;10.48;6.10;;;;;;;13.55;58.81;101808.34;4998645;28;20065;-76
2022/03/15 10:39:30;;;;;;;9.98;6.45;;;;;;;13.61;60.18;101811.00;5010523;28;20124;-76
2022/03/15 10:42:04;;;;;;;13.75;7.40;;;;;;;13.87;60.22;101810.16;4996538;28;20053;-76
2022/03/15 10:44:34;;;;;;;9.77;6.95;;;;;;;14.08;59.65;101806.59;5022551;28;20042;-76
2022/03/15 10:47:14;;;;;;;9.90;6.05;;;;;;;14.16;58.99;101804.84;4999137;28;20033;-76
2022/03/15 10:49:48;;;;;;;9.80;6.75;;;;;;;14.24;58.32;101795.09;4998399;28;20125;-76
2022/03/15 10:52:40;;;;;;;8.80;6.35;;;;;;;14.32;57.29;101781.81;5023705;28;20387;-75
2022/03/15 10:55:13;;;;;;;8.93;5.80;;;;;;;14.34;58.09;101786.22;5003282;28;20138;-75
2022/03/15 10:57:50;;;;;;;10.65;6.28;;;;;;;14.43;58.02;101782.66;5012870;28;20030;-77
2022/03/15 11:00:19;;;;;;;11.80;7.60;;;;;;;14.44;57.18;101774.69;5003071;28;20582;-76
2022/03/15 11:02:45;;;;;;;12.48;8.00;;;;;;;14.46;56.03;101780.91;5033682;28;20049;-76
2022/03/15 11:05:11;;;;;;;12.32;8.57;;;;;;;14.62;56.69;101770.28;5007597;28;20120;-76
2022/03/15 11:07:41;;;;;;;11.63;9.73;;;;;;;14.82;56.68;101759.53;5000886;28;20110;-76
2022/03/15 11:10:14;;;;;;;11.52;7.90;;;;;;;15.00;56.39;101761.25;5009804;28;20051;-76
2022/03/15 11:12:59;;;;;;;10.45;7.43;;;;;;;15.10;54.91;101761.19;5001466;28;20034;-75
2022/03/15 11:15:30;;;;;;;10.15;6.25;;;;;;;15.01;54.73;101766.56;5010534;28;20034;-75
2022/03/15 11:18:04;;;;;;;12.52;9.30;;;;;;;15.11;54.97;101762.06;5017612;28;20065;-76
2022/03/15 11:20:35;;;;;;;9.50;6.43;;;;;;;15.16;54.41;101748.75;5012171;28;20033;-76